Wetterdaten: Woche 15.08.05 - 21.08.05 (KW33)
Datum Zeit Temperatur Luftfeuchte Luftdruck Niederschlag Windrichtung Wind
15.08.2005 00:00 10,9 C 97 % 1018 hPa 2,0 l/m W-SW 7,3 km/h (2 Bft)
15.08.2005 01:00 10,6 C 97 % 1018 hPa 0,0 l/m SW 8,7 km/h (2 Bft)
15.08.2005 02:00 10,5 C 98 % 1017 hPa 0,0 l/m W-SW 8,6 km/h (2 Bft)
15.08.2005 03:00 10,1 C 98 % 1018 hPa 0,0 l/m W-SW 6,6 km/h (2 Bft)
15.08.2005 04:00 9,6 C 98 % 1018 hPa 0,0 l/m S 3,6 km/h (1 Bft)
15.08.2005 05:00 9,8 C 99 % 1018 hPa 0,0 l/m S 1,0 km/h (0 Bft)
15.08.2005 06:00 9,8 C 98 % 1018 hPa 0,0 l/m SW 8,5 km/h (2 Bft)
15.08.2005 07:00 10,0 C 97 % 1018 hPa 0,0 l/m S-SW 9,1 km/h (2 Bft)
15.08.2005 08:00 10,8 C 96 % 1018 hPa 0,0 l/m S-SW 9,8 km/h (2 Bft)
15.08.2005 09:00 11,7 C 92 % 1019 hPa 0,0 l/m S 10,1 km/h (2 Bft)
15.08.2005 10:00 12,5 C 87 % 1019 hPa 0,0 l/m S 10,9 km/h (2 Bft)
15.08.2005 11:00 14,1 C 78 % 1019 hPa 0,0 l/m SW 13,0 km/h (3 Bft)
15.08.2005 12:00 15,2 C 69 % 1019 hPa 0,0 l/m W 15,9 km/h (3 Bft)
15.08.2005 13:00 16,0 C 58 % 1019 hPa 0,0 l/m W-SW 16,5 km/h (3 Bft)
15.08.2005 14:00 16,4 C 56 % 1019 hPa 0,0 l/m W 15,2 km/h (3 Bft)
15.08.2005 15:00 16,4 C 57 % 1019 hPa 0,0 l/m W-SW 11,8 km/h (2 Bft)
15.08.2005 16:00 15,6 C 64 % 1019 hPa 0,0 l/m W-SW 11,8 km/h (2 Bft)
15.08.2005 17:00 15,7 C 70 % 1019 hPa 0,0 l/m S 13,7 km/h (3 Bft)
15.08.2005 18:00 16,3 C 67 % 1019 hPa 0,0 l/m W-SW 11,5 km/h (2 Bft)
15.08.2005 19:00 15,7 C 71 % 1020 hPa 0,0 l/m SW 8,8 km/h (2 Bft)
15.08.2005 20:00 14,4 C 78 % 1020 hPa 0,0 l/m W-SW 8,1 km/h (2 Bft)
15.08.2005 21:00 13,4 C 84 % 1020 hPa 0,0 l/m W-SW 12,7 km/h (3 Bft)
15.08.2005 22:00 12,9 C 88 % 1020 hPa 0,0 l/m W 11,4 km/h (2 Bft)
15.08.2005 23:00 12,9 C 92 % 1020 hPa 0,0 l/m W 11,1 km/h (2 Bft)
16.08.2005 00:00 12,7 C 94 % 1020 hPa 0,0 l/m W 6,2 km/h (2 Bft)
16.08.2005 01:00 12,6 C 95 % 1020 hPa 0,0 l/m W-SW 6,6 km/h (2 Bft)
16.08.2005 02:00 12,5 C 95 % 1020 hPa 0,0 l/m W 7,8 km/h (2 Bft)
16.08.2005 03:00 12,6 C 96 % 1020 hPa 0,0 l/m W 9,9 km/h (2 Bft)
16.08.2005 04:00 12,7 C 96 % 1019 hPa 0,0 l/m NW 8,4 km/h (2 Bft)
16.08.2005 05:00 12,8 C 97 % 1019 hPa 2,0 l/m W 3,1 km/h (1 Bft)
16.08.2005 06:00 12,8 C 98 % 1020 hPa 0,0 l/m N 5,7 km/h (1 Bft)
16.08.2005 07:00 13,0 C 100 % 1020 hPa 0,0 l/m N-NW 8,4 km/h (2 Bft)
16.08.2005 08:00 13,4 C 99 % 1020 hPa 1,0 l/m N 6,5 km/h (2 Bft)
16.08.2005 09:00 14,0 C 95 % 1021 hPa 0,0 l/m N-NO 8,0 km/h (2 Bft)
16.08.2005 10:00 15,5 C 81 % 1021 hPa 0,0 l/m N-NO 11,0 km/h (2 Bft)
16.08.2005 11:00 17,1 C 68 % 1021 hPa 0,0 l/m N-NO 12,5 km/h (3 Bft)
16.08.2005 12:00 16,1 C 67 % 1021 hPa 0,0 l/m NO 15,3 km/h (3 Bft)
16.08.2005 13:00 15,5 C 71 % 1021 hPa 0,0 l/m N-NO 8,2 km/h (2 Bft)
16.08.2005 14:00 16,2 C 70 % 1021 hPa 0,0 l/m O-NO 7,1 km/h (2 Bft)
16.08.2005 15:00 16,9 C 67 % 1021 hPa 0,0 l/m O-NO 11,2 km/h (2 Bft)
16.08.2005 16:00 17,2 C 67 % 1021 hPa 0,0 l/m O 10,4 km/h (2 Bft)
16.08.2005 17:00 16,9 C 68 % 1021 hPa 0,0 l/m O-NO 10,6 km/h (2 Bft)
16.08.2005 18:00 16,7 C 69 % 1021 hPa 0,0 l/m O 10,7 km/h (2 Bft)
16.08.2005 19:00 15,9 C 72 % 1021 hPa 0,0 l/m O 6,6 km/h (2 Bft)
16.08.2005 20:00 14,7 C 77 % 1021 hPa 0,0 l/m NO 1,6 km/h (1 Bft)
16.08.2005 21:00 12,7 C 87 % 1021 hPa 0,0 l/m N 0,0 km/h (0 Bft)
16.08.2005 22:00 11,7 C 92 % 1021 hPa 0,0 l/m N 0,0 km/h (0 Bft)
16.08.2005 23:00 11,6 C 95 % 1021 hPa 0,0 l/m W-NW 0,8 km/h (0 Bft)
17.08.2005 00:00 11,5 C 97 % 1021 hPa 0,0 l/m W-NW 2,3 km/h (1 Bft)
17.08.2005 01:00 11,0 C 97 % 1021 hPa 0,0 l/m W-NW 3,4 km/h (1 Bft)
17.08.2005 02:00 10,8 C 98 % 1020 hPa 0,0 l/m NW 8,2 km/h (2 Bft)
17.08.2005 03:00 10,8 C 99 % 1020 hPa 0,0 l/m N 6,5 km/h (2 Bft)
17.08.2005 04:00 10,4 C 99 % 1020 hPa 0,0 l/m NW 2,9 km/h (1 Bft)
17.08.2005 05:00 10,1 C 99 % 1020 hPa 0,0 l/m N-NW 1,8 km/h (1 Bft)
17.08.2005 06:00 10,0 C 100 % 1020 hPa 0,0 l/m N-NO 3,8 km/h (1 Bft)
17.08.2005 07:00 10,9 C 100 % 1020 hPa 0,0 l/m N-NO 8,4 km/h (2 Bft)
17.08.2005 08:00 12,5 C 98 % 1020 hPa 0,0 l/m N-NO 12,9 km/h (3 Bft)
17.08.2005 09:00 14,7 C 86 % 1020 hPa 0,0 l/m N-NO 14,0 km/h (3 Bft)
17.08.2005 10:00 17,9 C 70 % 1020 hPa 0,0 l/m N-NO 17,1 km/h (3 Bft)
17.08.2005 11:00 19,6 C 62 % 1020 hPa 0,0 l/m O-NO 23,1 km/h (4 Bft)
17.08.2005 12:00 21,3 C 56 % 1020 hPa 0,0 l/m N-NO 21,0 km/h (4 Bft)
17.08.2005 13:00 22,1 C 53 % 1019 hPa 0,0 l/m NO 22,3 km/h (4 Bft)
17.08.2005 14:00 22,4 C 52 % 1019 hPa 0,0 l/m O-NO 24,6 km/h (4 Bft)
17.08.2005 15:00 22,0 C 52 % 1019 hPa 0,0 l/m NO 22,7 km/h (4 Bft)
17.08.2005 16:00 22,3 C 51 % 1019 hPa 0,0 l/m NO 20,6 km/h (4 Bft)
17.08.2005 17:00 21,4 C 55 % 1018 hPa 0,0 l/m O-NO 21,2 km/h (4 Bft)
17.08.2005 18:00 21,1 C 56 % 1018 hPa 0,0 l/m O-NO 22,0 km/h (4 Bft)
17.08.2005 19:00 19,7 C 63 % 1018 hPa 0,0 l/m O 18,6 km/h (3 Bft)
17.08.2005 20:00 18,4 C 69 % 1018 hPa 0,0 l/m NO 14,7 km/h (3 Bft)
17.08.2005 21:00 17,2 C 75 % 1018 hPa 0,0 l/m NO 15,5 km/h (3 Bft)
17.08.2005 22:00 16,2 C 81 % 1018 hPa 0,0 l/m N-NO 11,1 km/h (2 Bft)
17.08.2005 23:00 15,2 C 85 % 1018 hPa 0,0 l/m N-NO 10,8 km/h (2 Bft)
18.08.2005 00:00 15,0 C 88 % 1018 hPa 0,0 l/m NO 11,2 km/h (2 Bft)
18.08.2005 01:00 15,0 C 87 % 1018 hPa 0,0 l/m O-NO 13,0 km/h (3 Bft)
18.08.2005 02:00 14,9 C 88 % 1018 hPa 0,0 l/m NO 11,5 km/h (2 Bft)
18.08.2005 03:00 14,9 C 90 % 1017 hPa 0,0 l/m NO 11,1 km/h (2 Bft)
18.08.2005 04:00 14,7 C 91 % 1017 hPa 0,0 l/m NO 10,9 km/h (2 Bft)
18.08.2005 05:00 14,7 C 92 % 1017 hPa 0,0 l/m NO 8,9 km/h (2 Bft)
18.08.2005 06:00 14,5 C 93 % 1017 hPa 0,0 l/m N-NO 9,1 km/h (2 Bft)
18.08.2005 07:00 14,3 C 94 % 1017 hPa 0,0 l/m N-NO 7,9 km/h (2 Bft)
18.08.2005 08:00 14,4 C 95 % 1017 hPa 0,0 l/m N-NO 8,5 km/h (2 Bft)
18.08.2005 09:00 14,7 C 95 % 1017 hPa 0,0 l/m N-NO 8,8 km/h (2 Bft)
18.08.2005 10:00 15,6 C 90 % 1017 hPa 0,0 l/m NO 8,1 km/h (2 Bft)
18.08.2005 11:00 16,9 C 83 % 1017 hPa 0,0 l/m N-NO 5,2 km/h (1 Bft)
18.08.2005 12:00 19,4 C 72 % 1017 hPa 0,0 l/m O-NO 7,8 km/h (2 Bft)
18.08.2005 13:00 22,3 C 62 % 1017 hPa 0,0 l/m N-NO 8,8 km/h (2 Bft)
18.08.2005 14:00 24,1 C 53 % 1016 hPa 0,0 l/m W 8,0 km/h (2 Bft)
18.08.2005 15:00 25,5 C 48 % 1016 hPa 0,0 l/m O-NO 7,4 km/h (2 Bft)
18.08.2005 16:00 26,3 C 45 % 1016 hPa 0,0 l/m N-NO 7,1 km/h (2 Bft)
18.08.2005 17:00 26,7 C 42 % 1015 hPa 0,0 l/m N 7,2 km/h (2 Bft)
18.08.2005 18:00 26,5 C 40 % 1015 hPa 0,0 l/m NO 7,2 km/h (2 Bft)
18.08.2005 19:00 24,0 C 52 % 1015 hPa 0,0 l/m O-NO 7,1 km/h (2 Bft)
18.08.2005 20:00 20,8 C 67 % 1016 hPa 0,0 l/m S-SW 0,5 km/h (0 Bft)
18.08.2005 21:00 18,9 C 76 % 1016 hPa 0,0 l/m O-NO 1,1 km/h (0 Bft)
18.08.2005 22:00 17,5 C 83 % 1016 hPa 0,0 l/m N 0,0 km/h (0 Bft)
18.08.2005 23:00 16,7 C 88 % 1017 hPa 0,0 l/m N 0,0 km/h (0 Bft)
19.08.2005 00:00 16,4 C 90 % 1016 hPa 0,0 l/m S-SO 0,0 km/h (0 Bft)
19.08.2005 16:00 26,0 C 43 % 1016 hPa 0,0 l/m S 13,7 km/h (3 Bft)
19.08.2005 17:00 25,7 C 44 % 1016 hPa 0,0 l/m S-SW 13,0 km/h (3 Bft)
19.08.2005 18:00 23,1 C 52 % 1016 hPa 0,0 l/m W 10,4 km/h (2 Bft)
19.08.2005 19:00 21,3 C 59 % 1016 hPa 0,0 l/m W 3,4 km/h (1 Bft)
19.08.2005 20:00 19,7 C 68 % 1017 hPa 0,0 l/m NW 1,0 km/h (0 Bft)
19.08.2005 21:00 18,8 C 75 % 1017 hPa 0,0 l/m W 4,8 km/h (1 Bft)
19.08.2005 22:00 18,6 C 76 % 1018 hPa 0,0 l/m W-NW 11,6 km/h (2 Bft)
19.08.2005 23:00 17,4 C 89 % 1018 hPa 3,0 l/m W 8,5 km/h (2 Bft)
20.08.2005 00:00 16,9 C 94 % 1019 hPa 1,0 l/m S 7,9 km/h (2 Bft)
20.08.2005 01:00 15,6 C 97 % 1019 hPa 5,0 l/m S 10,6 km/h (2 Bft)
20.08.2005 02:00 15,1 C 99 % 1019 hPa 1,0 l/m S 8,3 km/h (2 Bft)
20.08.2005 03:00 14,9 C 100 % 1019 hPa 0,0 l/m S 7,1 km/h (2 Bft)
20.08.2005 04:00 14,7 C 100 % 1019 hPa 0,0 l/m S 8,5 km/h (2 Bft)
20.08.2005 05:00 14,5 C 100 % 1018 hPa 0,0 l/m S 2,6 km/h (1 Bft)
20.08.2005 06:00 14,5 C 100 % 1019 hPa 1,0 l/m S 5,7 km/h (1 Bft)
20.08.2005 07:00 14,5 C 100 % 1019 hPa 0,0 l/m S-SO 0,2 km/h (0 Bft)
20.08.2005 08:00 14,9 C 100 % 1019 hPa 0,0 l/m N 0,0 km/h (0 Bft)
20.08.2005 09:00 15,3 C 100 % 1019 hPa 0,0 l/m N 0,0 km/h (0 Bft)
20.08.2005 10:00 15,6 C 98 % 1019 hPa 0,0 l/m N 0,0 km/h (0 Bft)
20.08.2005 11:00 15,7 C 97 % 1019 hPa 0,0 l/m W-SW 1,2 km/h (1 Bft)
20.08.2005 12:00 16,1 C 95 % 1019 hPa 0,0 l/m SW 0,6 km/h (0 Bft)
20.08.2005 13:00 16,7 C 90 % 1018 hPa 0,0 l/m W 3,8 km/h (1 Bft)
20.08.2005 14:00 16,9 C 85 % 1018 hPa 0,0 l/m N 2,2 km/h (1 Bft)
20.08.2005 15:00 15,9 C 89 % 1018 hPa 0,0 l/m N-NW 10,0 km/h (2 Bft)
20.08.2005 16:00 15,0 C 95 % 1018 hPa 0,0 l/m N-NW 11,5 km/h (2 Bft)
20.08.2005 17:00 15,7 C 93 % 1018 hPa 0,0 l/m N 14,2 km/h (3 Bft)
20.08.2005 18:00 15,5 C 92 % 1018 hPa 0,0 l/m N 13,7 km/h (3 Bft)
20.08.2005 19:00 15,2 C 93 % 1018 hPa 0,0 l/m N-NW 12,7 km/h (3 Bft)
20.08.2005 20:00 14,8 C 95 % 1018 hPa 0,0 l/m N-NW 9,4 km/h (2 Bft)
20.08.2005 21:00 14,7 C 97 % 1018 hPa 0,0 l/m N 10,7 km/h (2 Bft)
20.08.2005 22:00 14,5 C 97 % 1018 hPa 0,0 l/m N 8,9 km/h (2 Bft)
20.08.2005 23:00 14,2 C 97 % 1018 hPa 0,0 l/m N 4,3 km/h (1 Bft)
21.08.2005 00:00 14,1 C 97 % 1018 hPa 0,0 l/m N 7,6 km/h (2 Bft)
21.08.2005 01:00 14,1 C 98 % 1018 hPa 0,0 l/m N 9,6 km/h (2 Bft)
21.08.2005 02:00 14,0 C 98 % 1017 hPa 0,0 l/m N 8,8 km/h (2 Bft)
21.08.2005 03:00 14,0 C 97 % 1017 hPa 0,0 l/m N 7,5 km/h (2 Bft)
21.08.2005 04:00 13,8 C 98 % 1016 hPa 0,0 l/m N-NW 4,6 km/h (1 Bft)
21.08.2005 05:00 13,8 C 98 % 1016 hPa 0,0 l/m N-NW 0,3 km/h (0 Bft)
21.08.2005 06:00 13,8 C 98 % 1016 hPa 0,0 l/m N-NW 4,9 km/h (1 Bft)
21.08.2005 07:00 13,8 C 99 % 1016 hPa 0,0 l/m N-NW 7,7 km/h (2 Bft)
21.08.2005 08:00 13,8 C 99 % 1016 hPa 0,0 l/m N-NW 4,8 km/h (1 Bft)
21.08.2005 09:00 14,0 C 100 % 1015 hPa 0,0 l/m NW 5,5 km/h (1 Bft)
21.08.2005 10:00 14,4 C 100 % 1015 hPa 0,0 l/m N 7,8 km/h (2 Bft)
21.08.2005 11:00 15,0 C 100 % 1015 hPa 0,0 l/m NW 9,4 km/h (2 Bft)
21.08.2005 12:00 15,4 C 99 % 1014 hPa 0,0 l/m N-NW 12,8 km/h (3 Bft)
21.08.2005 13:00 15,6 C 99 % 1014 hPa 0,0 l/m N 13,7 km/h (3 Bft)
21.08.2005 14:00 16,3 C 99 % 1013 hPa 2,0 l/m N 10,2 km/h (2 Bft)
21.08.2005 15:00 16,7 C 98 % 1013 hPa 0,0 l/m N 12,9 km/h (3 Bft)
21.08.2005 16:00 17,5 C 96 % 1012 hPa 0,0 l/m N 13,5 km/h (3 Bft)
21.08.2005 17:00 17,4 C 95 % 1012 hPa 2,0 l/m N 14,8 km/h (3 Bft)
21.08.2005 18:00 17,0 C 98 % 1012 hPa 5,0 l/m N 19,4 km/h (3 Bft)
21.08.2005 19:00 16,4 C 98 % 1012 hPa 1,0 l/m N 12,7 km/h (3 Bft)
21.08.2005 20:00 16,0 C 98 % 1012 hPa 2,0 l/m N 9,9 km/h (2 Bft)
21.08.2005 21:00 16,2 C 100 % 1012 hPa 0,0 l/m N 15,9 km/h (3 Bft)
21.08.2005 22:00 15,8 C 100 % 1012 hPa 0,0 l/m N 15,9 km/h (3 Bft)
21.08.2005 23:00 15,6 C 100 % 1012 hPa 0,0 l/m N 14,9 km/h (3 Bft)
Min-Datum _ 15.08.05 18.08.05 21.08.05 - - 15.08.05
_ Min-Zeit 04:04 18:29 18:15 - - 00:01
Minimum _ 9,5 C 38 % 1011 hPa - - 0,0 km/h (0 Bft)
Max-Datum _ 18.08.05 16.08.05 16.08.05 20.08.05 - 17.08.05
_ Max-Zeit 17:44 07:11 09:30 01:13 - 15:44
Maximum _ 27,1 C 100 % 1021 hPa 5,0 l/m - 40,3 km/h
NO (6 Bft)
Durchschnitt _ 15,8 C 84 % 1018 hPa #28,0 l/m N 9,1 km/h (2 Bft)

Durchschnitt Minimum Temp.15,4 C
Durchschnitt Maximum Temp.16,1 C